createdAt,value
2018-05-13T00:02:23.706Z,18.45
2018-05-13T00:04:51.297Z,18.39
2018-05-13T00:07:18.953Z,18.35
2018-05-13T00:09:46.567Z,18.28
2018-05-13T00:12:14.201Z,18.27
2018-05-13T00:14:41.817Z,18.19
2018-05-13T00:17:09.742Z,18.14
2018-05-13T00:19:37.447Z,18.11
2018-05-13T00:22:05.375Z,18.07
2018-05-13T00:24:33.375Z,18.06
2018-05-13T00:27:01.008Z,18.05
2018-05-13T00:29:29.044Z,17.99
2018-05-13T00:31:56.679Z,17.94
2018-05-13T00:34:24.301Z,17.90
2018-05-13T00:36:51.926Z,17.83
2018-05-13T00:39:19.644Z,17.74
2018-05-13T00:41:47.293Z,17.64
2018-05-13T00:44:14.899Z,17.66
2018-05-13T00:46:42.541Z,17.62
2018-05-13T00:49:10.156Z,17.49
2018-05-13T00:51:37.764Z,17.57
2018-05-13T00:54:17.175Z,17.52
2018-05-13T00:56:44.773Z,17.45
2018-05-13T00:59:12.401Z,17.37
2018-05-13T01:01:39.993Z,17.38
2018-05-13T01:04:07.672Z,17.46
2018-05-13T01:06:35.310Z,17.44
2018-05-13T01:09:02.925Z,17.35
2018-05-13T01:11:30.542Z,17.35
2018-05-13T01:13:58.142Z,17.36
2018-05-13T01:16:25.783Z,17.36
2018-05-13T01:18:53.437Z,17.37
2018-05-13T01:21:21.262Z,17.32
2018-05-13T01:23:48.891Z,17.28
2018-05-13T01:26:16.490Z,17.26
2018-05-13T01:28:44.145Z,17.29
2018-05-13T01:31:12.239Z,17.27
2018-05-13T01:33:39.865Z,17.14
2018-05-13T01:36:07.577Z,17.16
2018-05-13T01:38:35.426Z,17.18
2018-05-13T01:41:03.044Z,17.11
2018-05-13T01:43:30.639Z,17.15
2018-05-13T01:45:58.269Z,17.16
2018-05-13T01:48:25.860Z,17.15
2018-05-13T01:50:53.502Z,17.15
2018-05-13T01:53:22.047Z,17.08
2018-05-13T01:55:50.087Z,17.11
2018-05-13T01:58:17.690Z,17.06
2018-05-13T02:00:45.308Z,17.03
2018-05-13T02:03:12.941Z,17.02
2018-05-13T02:05:40.562Z,16.96
2018-05-13T02:08:08.194Z,16.95
2018-05-13T02:10:35.808Z,16.94
2018-05-13T02:13:03.777Z,16.95
2018-05-13T02:15:31.377Z,16.92
2018-05-13T02:17:58.988Z,16.88
2018-05-13T02:20:26.786Z,16.88
2018-05-13T02:22:54.399Z,16.87
2018-05-13T02:25:22.198Z,16.87
2018-05-13T02:27:49.809Z,16.89
2018-05-13T02:30:17.460Z,16.86
2018-05-13T02:32:45.110Z,16.88
2018-05-13T02:35:12.714Z,16.84
2018-05-13T02:37:40.375Z,16.82
2018-05-13T02:40:08.165Z,16.76
2018-05-13T02:42:35.975Z,16.71
2018-05-13T02:45:03.666Z,16.70
2018-05-13T02:47:31.306Z,16.67
2018-05-13T02:49:59.638Z,16.65
2018-05-13T02:52:27.246Z,16.65
2018-05-13T02:54:56.249Z,16.65
2018-05-13T02:57:24.312Z,16.64
2018-05-13T02:59:52.406Z,16.61
2018-05-13T03:02:20.323Z,16.61
2018-05-13T03:04:47.991Z,16.58
2018-05-13T03:07:15.622Z,16.46
2018-05-13T03:09:43.269Z,16.48
2018-05-13T03:12:12.613Z,16.49
2018-05-13T03:14:40.210Z,16.46
2018-05-13T03:17:07.953Z,16.47
2018-05-13T03:19:35.553Z,16.48
2018-05-13T03:22:03.173Z,16.43
2018-05-13T03:24:30.810Z,16.46
2018-05-13T03:26:58.423Z,16.46
2018-05-13T03:29:26.050Z,16.36
2018-05-13T03:31:53.642Z,16.38
2018-05-13T03:34:21.272Z,16.35
2018-05-13T03:36:48.873Z,16.36
2018-05-13T03:39:16.482Z,16.38
2018-05-13T03:41:44.112Z,16.31
2018-05-13T03:44:11.704Z,16.34
2018-05-13T03:46:39.324Z,16.30
2018-05-13T03:49:06.943Z,16.32
2018-05-13T03:51:34.685Z,16.28
2018-05-13T03:54:02.286Z,16.29
2018-05-13T03:56:29.891Z,16.30
2018-05-13T03:58:57.599Z,16.35
2018-05-13T04:01:25.209Z,16.40
2018-05-13T04:03:52.880Z,16.40
2018-05-13T04:06:20.532Z,16.47
2018-05-13T04:08:59.752Z,16.51
2018-05-13T04:11:39.170Z,16.48
2018-05-13T04:14:18.601Z,16.52
2018-05-13T04:16:46.199Z,16.45
2018-05-13T04:19:14.145Z,16.50
2018-05-13T04:21:41.742Z,16.53
2018-05-13T04:24:09.353Z,16.56
2018-05-13T04:26:36.981Z,16.53
2018-05-13T04:29:04.597Z,16.61
2018-05-13T04:31:32.233Z,16.64
2018-05-13T04:33:59.832Z,16.61
2018-05-13T04:36:27.479Z,16.72
2018-05-13T04:38:55.113Z,16.69
2018-05-13T04:41:22.713Z,16.80
2018-05-13T04:43:50.341Z,16.87
2018-05-13T04:46:17.941Z,16.94
2018-05-13T04:48:45.566Z,17.01
2018-05-13T04:51:13.172Z,17.09
2018-05-13T04:53:41.015Z,17.10
2018-05-13T04:56:08.629Z,17.14
2018-05-13T04:58:36.220Z,17.20
2018-05-13T05:01:03.837Z,17.22
2018-05-13T05:03:31.430Z,17.24
2018-05-13T05:05:59.071Z,17.27
2018-05-13T05:08:26.982Z,17.33
2018-05-13T05:10:54.596Z,17.35
2018-05-13T05:13:22.222Z,17.39
2018-05-13T05:15:49.822Z,17.45
2018-05-13T05:18:17.445Z,17.46
2018-05-13T05:20:45.061Z,17.57
2018-05-13T05:23:12.684Z,17.62
2018-05-13T05:25:40.339Z,17.60
2018-05-13T05:28:07.941Z,17.69
2018-05-13T05:30:35.563Z,17.78
2018-05-13T05:33:03.162Z,17.87
2018-05-13T05:35:30.782Z,17.90
2018-05-13T05:37:58.382Z,17.92
2018-05-13T05:40:25.978Z,18.01
2018-05-13T05:42:53.614Z,18.01
2018-05-13T05:45:21.208Z,17.99
2018-05-13T05:47:48.829Z,18.10
2018-05-13T05:50:16.422Z,18.10
2018-05-13T05:52:44.038Z,18.18
2018-05-13T05:55:11.672Z,18.28
2018-05-13T05:57:39.284Z,18.33
2018-05-13T06:00:06.912Z,18.45
2018-05-13T06:02:34.511Z,18.56
2018-05-13T06:05:02.114Z,18.61
2018-05-13T06:07:29.728Z,18.71
2018-05-13T06:09:57.330Z,18.73
2018-05-13T06:12:24.978Z,18.77
2018-05-13T06:14:52.586Z,18.89
2018-05-13T06:17:20.207Z,18.95
2018-05-13T06:19:47.828Z,19.00
2018-05-13T06:22:15.428Z,19.05
2018-05-13T06:24:43.187Z,18.98
2018-05-13T06:27:10.800Z,19.10
2018-05-13T06:29:38.740Z,19.23
2018-05-13T06:32:06.338Z,19.27
2018-05-13T06:34:33.942Z,19.35
2018-05-13T06:37:02.224Z,19.43
2018-05-13T06:39:29.877Z,19.46
2018-05-13T06:41:57.474Z,19.61
2018-05-13T06:44:25.086Z,19.62
2018-05-13T06:46:52.824Z,19.61
2018-05-13T06:49:20.429Z,19.71
2018-05-13T06:51:48.027Z,19.77
2018-05-13T06:54:15.668Z,19.82
2018-05-13T06:56:43.297Z,19.92
2018-05-13T06:59:10.996Z,19.90
2018-05-13T07:01:38.599Z,19.96
2018-05-13T07:04:06.513Z,20.10
2018-05-13T07:06:34.183Z,20.17
2018-05-13T07:09:01.781Z,20.30
2018-05-13T07:11:29.397Z,20.31
2018-05-13T07:13:56.997Z,20.32
2018-05-13T07:16:24.809Z,20.40
2018-05-13T07:18:52.336Z,20.40
2018-05-13T07:21:20.157Z,20.47
2018-05-13T07:23:47.764Z,20.62
2018-05-13T07:26:15.378Z,20.65
2018-05-13T07:28:43.002Z,20.64
2018-05-13T07:31:10.605Z,20.71
2018-05-13T07:33:38.232Z,20.80
2018-05-13T07:36:05.830Z,20.86
2018-05-13T07:38:33.701Z,20.93
2018-05-13T07:41:01.305Z,20.97
2018-05-13T07:43:29.004Z,21.11
2018-05-13T07:45:56.574Z,21.19
2018-05-13T07:48:24.195Z,21.32
2018-05-13T07:50:51.821Z,21.37
2018-05-13T07:53:19.443Z,21.53
2018-05-13T07:55:47.323Z,21.57
2018-05-13T07:58:14.912Z,21.59
2018-05-13T08:00:42.501Z,21.60
2018-05-13T08:03:10.125Z,21.74
2018-05-13T08:05:37.718Z,21.83
2018-05-13T08:08:05.341Z,21.96
2018-05-13T08:10:32.944Z,22.01
2018-05-13T08:13:00.665Z,22.01
2018-05-13T08:15:28.275Z,22.18
2018-05-13T08:17:55.870Z,22.27
2018-05-13T08:20:23.600Z,22.47
2018-05-13T08:22:51.164Z,22.60
2018-05-13T08:25:18.785Z,22.63
2018-05-13T08:27:46.403Z,22.61
2018-05-13T08:30:13.999Z,22.72
2018-05-13T08:32:41.707Z,22.73
2018-05-13T08:35:09.324Z,22.78
2018-05-13T08:37:37.088Z,22.79
2018-05-13T08:40:04.704Z,22.83
2018-05-13T08:42:32.319Z,22.90
2018-05-13T08:44:59.935Z,22.93
2018-05-13T08:47:27.602Z,23.05
2018-05-13T08:49:55.278Z,23.08
2018-05-13T08:52:22.840Z,23.12
2018-05-13T08:54:50.740Z,23.14
2018-05-13T08:57:18.341Z,23.26
2018-05-13T08:59:45.993Z,23.34
2018-05-13T09:02:13.569Z,23.46
2018-05-13T09:04:41.166Z,23.53
2018-05-13T09:07:08.912Z,23.66
2018-05-13T09:09:36.521Z,23.66
2018-05-13T09:12:04.113Z,23.81
2018-05-13T09:14:31.823Z,23.94
2018-05-13T09:16:59.379Z,23.93
2018-05-13T09:19:27.152Z,24.01
2018-05-13T09:21:54.819Z,24.03
2018-05-13T09:24:22.429Z,24.07
2018-05-13T09:26:50.054Z,24.08
2018-05-13T09:29:17.657Z,24.06
2018-05-13T09:31:45.302Z,24.11
2018-05-13T09:34:12.901Z,24.26
2018-05-13T09:36:40.554Z,24.26
2018-05-13T09:39:08.624Z,24.39
2018-05-13T09:41:36.216Z,24.47
2018-05-13T09:44:03.844Z,24.58
2018-05-13T09:46:31.447Z,24.59
2018-05-13T09:48:59.071Z,24.58
2018-05-13T09:51:26.687Z,24.62
2018-05-13T09:53:54.532Z,24.71
2018-05-13T09:56:22.137Z,24.74
2018-05-13T09:58:49.757Z,24.85
2018-05-13T10:01:17.398Z,24.92
2018-05-13T10:03:45.002Z,25.05
2018-05-13T10:06:12.618Z,25.13
2018-05-13T10:08:40.209Z,25.07
2018-05-13T10:11:07.878Z,25.09
2018-05-13T10:13:35.567Z,25.00
2018-05-13T10:16:03.291Z,25.11
2018-05-13T10:18:30.926Z,25.12
2018-05-13T10:20:58.521Z,25.25
2018-05-13T10:23:26.137Z,25.38
2018-05-13T10:25:53.780Z,25.51
2018-05-13T10:28:21.696Z,25.55
2018-05-13T10:30:49.331Z,25.51
2018-05-13T10:33:16.934Z,25.38
2018-05-13T10:35:44.598Z,25.59
2018-05-13T10:38:12.458Z,25.65
2018-05-13T10:40:40.436Z,25.68
2018-05-13T10:43:08.083Z,25.70
2018-05-13T10:45:35.853Z,25.67
2018-05-13T10:48:03.453Z,25.75
2018-05-13T10:50:31.043Z,25.68
2018-05-13T10:52:58.660Z,25.74
2018-05-13T10:55:26.262Z,25.75
2018-05-13T10:57:53.984Z,25.84
2018-05-13T11:00:21.595Z,25.89
2018-05-13T11:02:49.349Z,25.87
2018-05-13T11:05:19.677Z,25.98
2018-05-13T11:07:47.735Z,26.21
2018-05-13T11:10:15.473Z,26.39
2018-05-13T11:12:44.345Z,26.58
2018-05-13T11:15:12.464Z,26.32
2018-05-13T11:17:40.308Z,26.13
2018-05-13T11:20:08.994Z,26.16
2018-05-13T11:22:37.126Z,26.35
2018-05-13T11:25:04.877Z,26.59
2018-05-13T11:27:32.660Z,26.50
2018-05-13T11:30:00.325Z,26.32
2018-05-13T11:32:28.131Z,26.55
2018-05-13T11:34:55.732Z,26.77
2018-05-13T11:37:23.755Z,26.87
2018-05-13T11:39:51.538Z,27.02
2018-05-13T11:42:19.050Z,27.20
2018-05-13T11:44:46.663Z,27.48
2018-05-13T11:47:14.346Z,27.78
2018-05-13T11:49:42.117Z,28.16
2018-05-13T11:52:09.835Z,28.15
2018-05-13T11:54:37.903Z,28.22
2018-05-13T11:57:05.630Z,28.49
2018-05-13T11:59:33.225Z,28.39
2018-05-13T12:02:00.941Z,28.20
2018-05-13T12:04:28.558Z,28.03
2018-05-13T12:06:56.186Z,27.75
2018-05-13T12:09:23.824Z,27.59
2018-05-13T12:11:51.744Z,27.98
2018-05-13T12:14:19.382Z,28.16
2018-05-13T12:16:46.986Z,28.35
2018-05-13T12:19:14.626Z,28.62
2018-05-13T12:21:42.379Z,28.77
2018-05-13T12:24:10.034Z,28.84
2018-05-13T12:26:37.630Z,28.82
2018-05-13T12:29:05.263Z,29.03
2018-05-13T12:31:32.971Z,28.77
2018-05-13T12:34:00.558Z,28.90
2018-05-13T12:36:28.182Z,28.97
2018-05-13T12:38:55.778Z,28.88
2018-05-13T12:41:23.595Z,28.86
2018-05-13T12:43:51.222Z,28.58
2018-05-13T12:46:18.854Z,28.83
2018-05-13T12:48:46.459Z,29.08
2018-05-13T12:51:14.052Z,28.71
2018-05-13T12:53:41.798Z,28.38
2018-05-13T12:56:09.440Z,28.03
2018-05-13T12:58:37.064Z,27.90
2018-05-13T13:01:04.696Z,28.31
2018-05-13T13:03:32.651Z,29.43
2018-05-13T13:06:00.238Z,30.71
2018-05-13T13:08:27.823Z,31.52
2018-05-13T13:10:55.451Z,32.28
2018-05-13T13:13:23.045Z,33.42
2018-05-13T13:15:50.680Z,33.83
2018-05-13T13:18:18.273Z,34.11
2018-05-13T13:20:45.936Z,34.98
2018-05-13T13:23:13.792Z,34.87
2018-05-13T13:25:41.443Z,35.38
2018-05-13T13:28:09.102Z,35.56
2018-05-13T13:30:36.867Z,35.68
2018-05-13T13:33:04.901Z,35.42
2018-05-13T13:35:32.671Z,35.75
2018-05-13T13:38:00.301Z,35.40
2018-05-13T13:40:27.909Z,35.53
2018-05-13T13:42:55.501Z,36.37
2018-05-13T13:45:23.158Z,36.87
2018-05-13T13:47:50.774Z,35.90
2018-05-13T13:50:18.406Z,34.93
2018-05-13T13:52:46.026Z,34.21
2018-05-13T13:55:13.779Z,33.70
2018-05-13T13:57:41.381Z,32.49
2018-05-13T14:00:08.998Z,31.75
2018-05-13T14:02:36.629Z,30.40
2018-05-13T14:05:04.293Z,29.63
2018-05-13T14:07:31.974Z,29.17
2018-05-13T14:09:59.594Z,28.52
2018-05-13T14:12:27.315Z,28.72
2018-05-13T14:14:55.119Z,28.85
2018-05-13T14:17:22.718Z,28.79
2018-05-13T14:19:50.346Z,28.61
2018-05-13T14:22:18.016Z,28.21
2018-05-13T14:24:45.670Z,28.04
2018-05-13T14:27:13.270Z,27.98
2018-05-13T14:29:41.146Z,27.90
2018-05-13T14:32:08.758Z,27.60
2018-05-13T14:34:36.352Z,27.42
2018-05-13T14:37:03.992Z,27.41
2018-05-13T14:39:31.589Z,27.36
2018-05-13T14:41:59.209Z,27.09
2018-05-13T14:44:26.810Z,26.69
2018-05-13T14:46:54.676Z,26.34
2018-05-13T14:49:22.273Z,26.23
2018-05-13T14:51:49.916Z,26.08
2018-05-13T14:54:17.537Z,25.89
2018-05-13T14:56:45.134Z,25.69
2018-05-13T14:59:12.778Z,25.51
2018-05-13T15:01:40.410Z,25.42
2018-05-13T15:04:08.022Z,25.40
2018-05-13T15:06:35.618Z,25.15
2018-05-13T15:09:03.254Z,24.98
2018-05-13T15:11:30.859Z,24.84
2018-05-13T15:13:58.492Z,24.78
2018-05-13T15:16:26.186Z,24.74
2018-05-13T15:18:54.051Z,24.70
2018-05-13T15:21:21.746Z,24.58
2018-05-13T15:23:49.524Z,24.53
2018-05-13T15:26:17.140Z,24.40
2018-05-13T15:28:44.742Z,24.34
2018-05-13T15:31:12.406Z,24.36
2018-05-13T15:33:40.013Z,24.23
2018-05-13T15:36:07.831Z,24.15
2018-05-13T15:38:35.446Z,24.05
2018-05-13T15:41:03.043Z,24.01
2018-05-13T15:43:30.671Z,23.95
2018-05-13T15:45:58.267Z,23.93
2018-05-13T15:48:25.894Z,23.91
2018-05-13T15:50:53.486Z,23.99
2018-05-13T15:53:21.098Z,23.95
2018-05-13T15:55:48.710Z,23.92
2018-05-13T15:58:16.307Z,23.99
2018-05-13T16:00:43.925Z,24.00
2018-05-13T16:03:11.529Z,23.96
2018-05-13T16:05:39.164Z,23.96
2018-05-13T16:08:06.937Z,23.93
2018-05-13T16:10:34.523Z,23.99
2018-05-13T16:13:02.138Z,23.97
2018-05-13T16:15:29.846Z,23.94
2018-05-13T16:17:57.474Z,23.96
2018-05-13T16:20:26.773Z,23.96
2018-05-13T16:22:54.559Z,23.93
2018-05-13T16:25:22.147Z,23.87
2018-05-13T16:27:49.756Z,23.85
2018-05-13T16:30:17.465Z,23.81
2018-05-13T16:32:45.023Z,23.79
2018-05-13T16:35:12.706Z,23.67
2018-05-13T16:37:40.325Z,23.66
2018-05-13T16:40:07.989Z,23.61
2018-05-13T16:42:35.579Z,23.63
2018-05-13T16:45:03.174Z,23.63
2018-05-13T16:47:30.791Z,23.54
2018-05-13T16:49:58.413Z,23.54
2018-05-13T16:52:26.057Z,23.54
2018-05-13T16:54:53.756Z,23.57
2018-05-13T16:57:21.390Z,23.56
2018-05-13T16:59:48.992Z,23.55
2018-05-13T17:02:17.748Z,23.50
2018-05-13T17:04:45.375Z,23.47
2018-05-13T17:07:12.969Z,23.54
2018-05-13T17:09:40.645Z,23.60
2018-05-13T17:12:08.210Z,23.60
2018-05-13T17:14:35.827Z,23.14
2018-05-13T17:17:03.487Z,22.97
2018-05-13T17:19:31.406Z,22.20
2018-05-13T17:21:59.055Z,21.57
2018-05-13T17:24:26.643Z,21.24
2018-05-13T17:26:54.275Z,21.33
2018-05-13T17:29:21.872Z,21.36
2018-05-13T17:31:49.488Z,21.37
2018-05-13T17:34:17.157Z,21.10
2018-05-13T17:36:44.737Z,21.10
2018-05-13T17:39:12.768Z,20.91
2018-05-13T17:41:40.386Z,20.76
2018-05-13T17:44:07.988Z,20.78
2018-05-13T17:46:35.893Z,20.70
2018-05-13T17:49:03.526Z,20.76
2018-05-13T17:51:31.141Z,20.66
2018-05-13T17:53:58.763Z,20.67
2018-05-13T17:56:26.359Z,20.76
2018-05-13T17:58:53.988Z,20.48
2018-05-13T18:01:21.587Z,20.49
2018-05-13T18:03:49.558Z,20.22
2018-05-13T18:06:17.182Z,20.12
2018-05-13T18:08:45.108Z,20.22
2018-05-13T18:11:12.686Z,20.26
2018-05-13T18:13:40.289Z,20.03
2018-05-13T18:16:07.924Z,19.97
2018-05-13T18:18:35.537Z,20.16
2018-05-13T18:21:03.590Z,20.00
2018-05-13T18:23:31.341Z,20.16
2018-05-13T18:25:59.178Z,20.29
2018-05-13T18:28:26.802Z,20.19
2018-05-13T18:30:54.549Z,20.28
2018-05-13T18:33:22.165Z,20.42
2018-05-13T18:35:49.765Z,20.30
2018-05-13T18:38:17.412Z,20.33
2018-05-13T18:40:45.027Z,20.39
2018-05-13T18:43:12.634Z,20.54
2018-05-13T18:45:40.256Z,20.26
2018-05-13T18:48:07.870Z,20.12
2018-05-13T18:50:35.490Z,20.16
2018-05-13T18:53:03.101Z,20.11
2018-05-13T18:55:30.727Z,20.33
2018-05-13T18:57:58.578Z,20.18
2018-05-13T19:00:26.317Z,20.22
2018-05-13T19:02:53.923Z,20.09
2018-05-13T19:05:21.542Z,19.93
2018-05-13T19:07:49.171Z,19.82
2018-05-13T19:10:16.791Z,19.82
2018-05-13T19:12:44.723Z,19.84
2018-05-13T19:15:12.325Z,19.91
2018-05-13T19:17:39.938Z,19.85
2018-05-13T19:20:07.564Z,19.89
2018-05-13T19:22:35.174Z,19.96
2018-05-13T19:25:02.802Z,19.96
2018-05-13T19:27:30.413Z,19.95
2018-05-13T19:29:58.055Z,19.89
2018-05-13T19:32:25.670Z,19.62
2018-05-13T19:34:53.335Z,19.73
2018-05-13T19:37:20.993Z,19.55
2018-05-13T19:39:48.588Z,19.22
2018-05-13T19:42:16.218Z,19.09
2018-05-13T19:44:43.860Z,19.16
2018-05-13T19:47:11.485Z,19.38
2018-05-13T19:49:39.091Z,18.94
2018-05-13T19:52:06.717Z,18.75
2018-05-13T19:54:34.315Z,18.58
2018-05-13T19:57:02.101Z,18.58
2018-05-13T19:59:30.311Z,18.48
2018-05-13T20:01:57.944Z,18.34
2018-05-13T20:04:25.580Z,18.33
2018-05-13T20:06:53.236Z,18.31
2018-05-13T20:09:20.922Z,18.25
2018-05-13T20:11:48.466Z,18.26
2018-05-13T20:14:16.101Z,18.15
2018-05-13T20:16:43.696Z,18.10
2018-05-13T20:19:11.313Z,18.30
2018-05-13T20:21:39.071Z,18.05
2018-05-13T20:24:06.701Z,17.94
2018-05-13T20:26:34.301Z,17.98
2018-05-13T20:29:02.058Z,17.93
2018-05-13T20:31:29.658Z,17.91
2018-05-13T20:33:57.286Z,17.96
2018-05-13T20:36:24.958Z,17.87
2018-05-13T20:38:52.579Z,17.96
2018-05-13T20:41:20.213Z,17.94
2018-05-13T20:43:47.802Z,17.87
2018-05-13T20:46:15.698Z,17.81
2018-05-13T20:48:43.405Z,17.80
2018-05-13T20:51:11.040Z,17.90
2018-05-13T20:53:38.690Z,17.79
2018-05-13T20:56:06.299Z,17.86
2018-05-13T20:58:33.926Z,17.83
2018-05-13T21:01:01.521Z,17.74
2018-05-13T21:03:29.329Z,17.72
2018-05-13T21:05:56.929Z,17.67
2018-05-13T21:08:24.542Z,17.69
2018-05-13T21:10:52.171Z,17.84
2018-05-13T21:13:19.779Z,17.83
2018-05-13T21:15:47.421Z,17.83
2018-05-13T21:18:15.050Z,17.80
2018-05-13T21:20:42.860Z,17.76
2018-05-13T21:23:10.471Z,17.74
2018-05-13T21:25:38.105Z,17.65
2018-05-13T21:28:05.746Z,17.56
2018-05-13T21:30:33.334Z,17.50
2018-05-13T21:33:00.958Z,17.61
2018-05-13T21:35:28.579Z,17.52
2018-05-13T21:37:56.498Z,17.40
2018-05-13T21:40:24.124Z,17.35
2018-05-13T21:42:51.734Z,17.51
2018-05-13T21:45:19.375Z,17.55
2018-05-13T21:47:46.982Z,17.64
2018-05-13T21:50:14.614Z,17.66
2018-05-13T21:52:42.208Z,17.84
2018-05-13T21:55:10.345Z,17.72
2018-05-13T21:57:37.977Z,17.80
2018-05-13T22:00:05.578Z,17.91
2018-05-13T22:02:33.200Z,18.02
2018-05-13T22:05:00.816Z,17.89
2018-05-13T22:07:28.469Z,17.86
2018-05-13T22:09:56.090Z,17.77
2018-05-13T22:12:23.746Z,17.73
2018-05-13T22:14:51.345Z,17.69
2018-05-13T22:17:18.950Z,17.65
2018-05-13T22:19:46.578Z,17.57
2018-05-13T22:22:14.181Z,17.58
2018-05-13T22:24:41.806Z,17.53
2018-05-13T22:27:09.515Z,17.46
2018-05-13T22:29:37.172Z,17.38
2018-05-13T22:32:04.805Z,17.17
2018-05-13T22:34:32.448Z,17.09
2018-05-13T22:37:00.094Z,16.99
2018-05-13T22:39:27.699Z,17.01
2018-05-13T22:41:55.325Z,17.05
2018-05-13T22:44:22.930Z,17.13
2018-05-13T22:46:50.843Z,17.11
2018-05-13T22:49:18.441Z,17.08
2018-05-13T22:51:46.069Z,16.93
2018-05-13T22:54:13.696Z,16.95
2018-05-13T22:56:41.285Z,17.12
2018-05-13T22:59:08.905Z,17.11
2018-05-13T23:01:36.495Z,16.95
2018-05-13T23:04:04.124Z,16.93
2018-05-13T23:06:31.733Z,16.89
2018-05-13T23:08:59.604Z,16.98
2018-05-13T23:11:27.212Z,17.02
2018-05-13T23:13:54.822Z,16.87
2018-05-13T23:16:22.458Z,16.93
2018-05-13T23:18:50.053Z,16.94
2018-05-13T23:21:17.680Z,16.94
2018-05-13T23:23:45.292Z,16.91
2018-05-13T23:26:13.071Z,16.96
2018-05-13T23:28:40.665Z,16.97
2018-05-13T23:31:08.249Z,16.95
2018-05-13T23:33:35.858Z,16.87
2018-05-13T23:36:03.445Z,16.84
2018-05-13T23:38:31.073Z,16.92
2018-05-13T23:40:58.678Z,16.98
2018-05-13T23:43:26.535Z,16.92
2018-05-13T23:45:54.097Z,16.99
2018-05-13T23:48:21.685Z,16.94
2018-05-13T23:50:49.312Z,16.77
2018-05-13T23:53:16.964Z,16.68
2018-05-13T23:55:44.688Z,16.72
2018-05-13T23:58:12.331Z,16.89
